createdAt,value
2023-01-29T00:01:59.125Z,73.00
2023-01-29T00:04:26.889Z,72.46
2023-01-29T00:06:53.790Z,72.68
2023-01-29T00:09:20.535Z,72.69
2023-01-29T00:11:47.595Z,72.71
2023-01-29T00:14:15.112Z,72.95
2023-01-29T00:16:45.559Z,72.73
2023-01-29T00:19:12.595Z,72.85
2023-01-29T00:21:39.584Z,72.79
2023-01-29T00:24:06.592Z,72.78
2023-01-29T00:26:33.524Z,73.00
2023-01-29T00:29:03.472Z,72.77
2023-01-29T00:31:30.535Z,72.85
2023-01-29T00:33:57.514Z,72.80
2023-01-29T00:36:25.655Z,72.94
2023-01-29T00:38:58.743Z,72.86
2023-01-29T00:41:48.340Z,72.98
2023-01-29T00:44:33.863Z,72.77
2023-01-29T00:47:02.290Z,72.69
2023-01-29T00:49:30.575Z,72.84
2023-01-29T00:52:17.050Z,72.71
2023-01-29T00:54:43.865Z,72.67
2023-01-29T00:57:10.763Z,72.85
2023-01-29T00:59:38.073Z,72.64
2023-01-29T01:02:23.646Z,72.73
2023-01-29T01:04:50.616Z,72.90
2023-01-29T01:07:17.541Z,73.14
2023-01-29T01:10:05.047Z,72.93
2023-01-29T01:12:32.167Z,73.01
2023-01-29T01:14:59.303Z,73.18
2023-01-29T01:17:26.212Z,73.29
2023-01-29T01:19:53.156Z,73.08
2023-01-29T01:22:20.335Z,73.38
2023-01-29T01:24:47.395Z,73.14
2023-01-29T01:27:14.415Z,73.15
2023-01-29T01:29:41.728Z,73.17
2023-01-29T01:32:09.326Z,73.06
2023-01-29T01:34:36.716Z,73.00
2023-01-29T01:37:04.745Z,72.99
2023-01-29T01:39:33.126Z,73.08
2023-01-29T01:42:00.086Z,72.94
2023-01-29T01:44:45.695Z,72.95
2023-01-29T01:47:12.913Z,72.65
2023-01-29T01:49:40.569Z,72.83
2023-01-29T01:52:08.497Z,72.78
2023-01-29T01:54:37.029Z,72.68
2023-01-29T01:57:16.013Z,72.67
2023-01-29T01:59:49.173Z,72.57
2023-01-29T02:02:36.267Z,72.47
2023-01-29T02:05:21.853Z,72.58
2023-01-29T02:08:09.013Z,72.37
2023-01-29T02:10:38.391Z,72.61
2023-01-29T02:13:06.532Z,72.61
2023-01-29T02:15:33.602Z,72.53
2023-01-29T02:18:02.376Z,72.28
2023-01-29T02:20:37.003Z,72.63
2023-01-29T02:23:23.563Z,72.64
2023-01-29T02:26:11.796Z,72.49
2023-01-29T02:29:18.913Z,72.57
2023-01-29T02:31:48.412Z,72.60
2023-01-29T02:34:32.594Z,72.55
2023-01-29T02:37:09.631Z,72.79
2023-01-29T02:40:04.223Z,72.54
2023-01-29T02:42:37.038Z,72.59
2023-01-29T02:45:26.180Z,72.43
2023-01-29T02:48:00.979Z,72.56
2023-01-29T02:50:30.756Z,72.63
2023-01-29T02:53:09.780Z,72.46
2023-01-29T02:55:47.293Z,72.46
2023-01-29T02:58:17.830Z,72.53
2023-01-29T03:00:46.114Z,72.55
2023-01-29T03:03:17.437Z,72.54
2023-01-29T03:05:55.215Z,72.49
2023-01-29T03:08:37.272Z,72.71
2023-01-29T03:11:08.501Z,72.55
2023-01-29T03:13:42.017Z,72.56
2023-01-29T03:16:19.420Z,72.58
2023-01-29T03:18:54.066Z,72.60
2023-01-29T03:21:43.640Z,72.58
2023-01-29T03:24:32.850Z,72.54
2023-01-29T03:27:20.673Z,72.52
2023-01-29T03:30:08.253Z,72.36
2023-01-29T03:32:54.199Z,72.42
2023-01-29T03:35:38.539Z,72.43
2023-01-29T03:38:10.449Z,72.42
2023-01-29T03:40:58.570Z,72.45
2023-01-29T03:43:35.919Z,72.40
2023-01-29T03:46:08.806Z,72.40
2023-01-29T03:48:50.873Z,72.36
2023-01-29T03:51:41.859Z,72.46
2023-01-29T03:54:35.189Z,72.29
2023-01-29T03:57:28.637Z,72.38
2023-01-29T04:00:09.311Z,72.39
2023-01-29T04:03:00.442Z,72.41
2023-01-29T04:05:30.163Z,72.61
2023-01-29T04:08:14.751Z,72.24
2023-01-29T04:10:43.591Z,72.34
2023-01-29T04:13:12.161Z,72.38
2023-01-29T04:15:46.510Z,72.44
2023-01-29T04:18:13.694Z,72.33
2023-01-29T04:21:09.655Z,72.41
2023-01-29T04:23:36.500Z,72.44
2023-01-29T04:26:09.672Z,72.29
2023-01-29T04:28:47.365Z,72.58
2023-01-29T04:31:14.669Z,72.44
2023-01-29T04:33:56.869Z,72.64
2023-01-29T04:36:42.608Z,72.25
2023-01-29T04:39:17.550Z,72.54
2023-01-29T04:41:54.726Z,72.43
2023-01-29T04:44:34.265Z,72.37
2023-01-29T04:47:06.186Z,72.46
2023-01-29T04:49:36.328Z,72.37
2023-01-29T04:52:03.140Z,72.40
2023-01-29T04:54:33.003Z,72.35
2023-01-29T04:57:23.347Z,72.28
2023-01-29T05:00:10.398Z,72.58
2023-01-29T05:02:38.420Z,72.39
2023-01-29T05:05:06.321Z,72.43
2023-01-29T05:07:36.220Z,72.27
2023-01-29T05:10:04.658Z,72.33
2023-01-29T05:12:31.593Z,72.43
2023-01-29T05:15:01.184Z,72.50
2023-01-29T05:17:28.320Z,72.42
2023-01-29T05:19:57.352Z,72.34
2023-01-29T05:22:26.864Z,72.50
2023-01-29T05:24:53.700Z,72.54
2023-01-29T05:27:41.226Z,72.23
2023-01-29T05:30:09.400Z,72.39
2023-01-29T05:32:36.315Z,72.48
2023-01-29T05:35:03.350Z,72.48
2023-01-29T05:37:30.242Z,72.22
2023-01-29T05:39:57.309Z,72.32
2023-01-29T05:42:24.409Z,72.28
2023-01-29T05:44:51.314Z,72.29
2023-01-29T05:47:21.374Z,72.51
2023-01-29T05:49:48.243Z,72.21
2023-01-29T05:52:20.858Z,72.27
2023-01-29T05:54:48.372Z,72.32
2023-01-29T05:57:18.535Z,72.23
2023-01-29T05:59:45.596Z,72.30
2023-01-29T06:02:12.616Z,72.49
2023-01-29T06:04:39.625Z,72.42
2023-01-29T06:07:06.594Z,72.31
2023-01-29T06:09:33.501Z,72.32
2023-01-29T06:12:00.330Z,72.39
2023-01-29T06:14:29.074Z,72.34
2023-01-29T06:16:55.974Z,72.41
2023-01-29T06:19:22.903Z,72.34
2023-01-29T06:21:49.761Z,72.11
2023-01-29T06:24:16.772Z,72.36
2023-01-29T06:27:08.667Z,72.24
2023-01-29T06:29:36.681Z,72.40
2023-01-29T06:32:03.676Z,72.40
2023-01-29T06:34:30.549Z,72.30
2023-01-29T06:36:57.568Z,72.42
2023-01-29T06:39:28.499Z,72.29
2023-01-29T06:41:55.290Z,72.09
2023-01-29T06:44:22.974Z,72.24
2023-01-29T06:46:49.768Z,72.36
2023-01-29T06:49:16.729Z,72.14
2023-01-29T06:51:43.576Z,72.41
2023-01-29T06:54:11.009Z,72.42
2023-01-29T06:56:37.889Z,72.04
2023-01-29T06:59:04.797Z,72.40
2023-01-29T07:01:36.039Z,72.22
2023-01-29T07:04:03.877Z,72.17
2023-01-29T07:06:30.879Z,72.18
2023-01-29T07:08:57.855Z,72.27
2023-01-29T07:11:24.829Z,72.15
2023-01-29T07:13:51.760Z,72.04
2023-01-29T07:16:19.465Z,72.27
2023-01-29T07:18:46.826Z,72.03
2023-01-29T07:21:13.800Z,72.27
2023-01-29T07:23:40.833Z,72.25
2023-01-29T07:26:07.676Z,72.01
2023-01-29T07:28:43.490Z,72.14
2023-01-29T07:31:13.690Z,72.13
2023-01-29T07:33:40.669Z,72.21
2023-01-29T07:36:12.370Z,71.99
2023-01-29T07:38:39.798Z,72.24
2023-01-29T07:41:08.371Z,72.02
2023-01-29T07:43:35.750Z,72.06
2023-01-29T07:46:04.152Z,72.11
2023-01-29T07:48:31.828Z,72.00
2023-01-29T07:50:59.375Z,72.13
2023-01-29T07:53:27.185Z,71.95
2023-01-29T07:55:57.722Z,71.61
2023-01-29T07:58:24.861Z,71.77
2023-01-29T08:00:51.803Z,72.00
2023-01-29T08:03:20.389Z,71.96
2023-01-29T08:05:47.586Z,72.01
2023-01-29T08:08:14.879Z,71.90
2023-01-29T08:10:42.239Z,72.03
2023-01-29T08:13:11.406Z,71.68
2023-01-29T08:15:39.383Z,72.04
2023-01-29T08:18:06.772Z,71.69
2023-01-29T08:20:33.798Z,71.60
2023-01-29T08:23:02.053Z,71.55
2023-01-29T08:25:29.623Z,71.87
2023-01-29T08:28:00.984Z,71.65
2023-01-29T08:30:29.735Z,71.85
2023-01-29T08:32:56.694Z,71.71
2023-01-29T08:35:24.172Z,71.81
2023-01-29T08:38:04.072Z,71.66
2023-01-29T08:40:32.472Z,71.45
2023-01-29T08:43:02.150Z,71.62
2023-01-29T08:45:30.485Z,71.71
2023-01-29T08:47:57.529Z,71.86
2023-01-29T08:50:24.679Z,71.80
2023-01-29T08:53:08.252Z,71.73
2023-01-29T08:55:36.808Z,71.75
2023-01-29T08:58:08.050Z,71.97
2023-01-29T09:00:35.279Z,71.57
2023-01-29T09:03:02.385Z,71.87
2023-01-29T09:05:29.713Z,72.04
2023-01-29T09:08:06.997Z,71.49
2023-01-29T09:10:34.607Z,71.75
2023-01-29T09:13:01.797Z,71.72
2023-01-29T09:15:28.735Z,71.61
2023-01-29T09:17:57.613Z,71.38
2023-01-29T09:20:24.709Z,71.34
2023-01-29T09:22:53.804Z,71.63
2023-01-29T09:25:20.873Z,71.53
2023-01-29T09:27:48.889Z,71.49
2023-01-29T09:30:16.289Z,71.45
2023-01-29T09:32:53.032Z,71.69
2023-01-29T09:35:20.685Z,71.30
2023-01-29T09:37:48.345Z,71.20
2023-01-29T09:40:26.902Z,71.55
2023-01-29T09:42:57.829Z,71.17
2023-01-29T09:45:26.905Z,71.61
2023-01-29T09:47:56.493Z,70.97
2023-01-29T09:50:38.661Z,71.28
2023-01-29T09:53:05.940Z,71.00
2023-01-29T09:55:51.890Z,71.11
2023-01-29T09:58:27.560Z,71.27
2023-01-29T10:00:54.524Z,71.15
2023-01-29T10:03:39.917Z,71.10
2023-01-29T10:06:25.704Z,71.02
2023-01-29T10:08:55.711Z,71.19
2023-01-29T10:11:28.713Z,70.98
2023-01-29T10:14:11.110Z,70.95
2023-01-29T10:16:54.479Z,70.97
2023-01-29T10:19:36.134Z,71.16
2023-01-29T10:22:08.403Z,70.69
2023-01-29T10:24:53.909Z,70.88
2023-01-29T10:27:21.923Z,70.65
2023-01-29T10:29:54.701Z,70.74
2023-01-29T10:32:34.106Z,71.00
2023-01-29T10:35:28.200Z,70.88
2023-01-29T10:38:02.064Z,70.89
2023-01-29T10:40:29.312Z,70.34
2023-01-29T10:43:20.429Z,70.74
2023-01-29T10:45:57.523Z,70.18
2023-01-29T10:48:39.348Z,70.34
2023-01-29T10:51:41.915Z,70.35
2023-01-29T10:54:17.328Z,70.32
2023-01-29T10:57:07.354Z,70.27
2023-01-29T10:59:54.716Z,70.45
2023-01-29T11:02:22.837Z,70.41
2023-01-29T11:04:50.044Z,70.90
2023-01-29T11:07:18.449Z,70.61
2023-01-29T11:09:48.475Z,70.74
2023-01-29T11:12:16.946Z,70.27
2023-01-29T11:14:51.961Z,70.84
2023-01-29T11:17:27.176Z,70.73
2023-01-29T11:19:58.109Z,70.58
2023-01-29T11:22:50.506Z,70.37
2023-01-29T11:25:19.067Z,70.16
2023-01-29T11:27:54.963Z,70.20
2023-01-29T11:30:30.785Z,70.29
2023-01-29T11:33:01.062Z,70.29
2023-01-29T11:35:30.434Z,70.46
2023-01-29T11:38:06.985Z,70.36
2023-01-29T11:40:36.727Z,70.37
2023-01-29T11:43:13.777Z,70.43
2023-01-29T11:45:41.027Z,70.05
2023-01-29T11:48:14.559Z,70.08
2023-01-29T11:50:41.481Z,70.42
2023-01-29T11:53:23.644Z,70.03
2023-01-29T11:55:56.033Z,70.21
2023-01-29T11:58:34.677Z,70.33
2023-01-29T12:01:02.896Z,70.28
2023-01-29T12:03:45.065Z,70.70
2023-01-29T12:06:34.101Z,70.52
2023-01-29T12:09:02.671Z,70.67
2023-01-29T12:11:33.854Z,70.59
2023-01-29T12:14:01.877Z,70.32
2023-01-29T12:16:29.054Z,70.29
2023-01-29T12:19:14.840Z,69.93
2023-01-29T12:21:53.090Z,70.31
2023-01-29T12:24:46.755Z,70.12
2023-01-29T12:27:23.027Z,70.50
2023-01-29T12:29:53.123Z,70.46
2023-01-29T12:32:38.560Z,70.54
2023-01-29T12:35:28.246Z,70.07
2023-01-29T12:38:01.065Z,70.09
2023-01-29T12:40:34.934Z,70.32
2023-01-29T12:43:05.912Z,70.59
2023-01-29T12:45:38.747Z,70.29
2023-01-29T12:48:08.708Z,69.97
2023-01-29T12:51:08.093Z,70.05
2023-01-29T12:53:39.074Z,69.96
2023-01-29T12:56:18.347Z,70.02
2023-01-29T12:58:51.323Z,70.16
2023-01-29T13:01:18.875Z,70.19
2023-01-29T13:03:50.498Z,70.12
2023-01-29T13:06:20.695Z,70.26
2023-01-29T13:08:58.757Z,70.08
2023-01-29T13:11:28.478Z,70.13
2023-01-29T13:13:59.781Z,70.04
2023-01-29T13:16:39.668Z,70.28
2023-01-29T13:19:45.626Z,70.28
2023-01-29T13:22:35.535Z,70.38
2023-01-29T13:25:05.652Z,70.23
2023-01-29T13:27:47.967Z,69.96
2023-01-29T13:30:38.078Z,70.08
2023-01-29T13:33:12.811Z,70.27
2023-01-29T13:35:50.361Z,69.99
2023-01-29T13:38:24.044Z,69.95
2023-01-29T13:41:00.597Z,69.75
2023-01-29T13:43:28.861Z,69.81
2023-01-29T13:45:56.295Z,69.72
2023-01-29T13:49:05.169Z,69.70
2023-01-29T13:51:47.499Z,70.08
2023-01-29T13:54:18.387Z,70.25
2023-01-29T13:57:06.305Z,69.95
2023-01-29T13:59:51.227Z,70.15
2023-01-29T14:02:28.727Z,69.95
2023-01-29T14:05:18.064Z,70.23
2023-01-29T14:07:45.358Z,69.80
2023-01-29T14:10:14.356Z,70.09
2023-01-29T14:12:52.262Z,69.85
2023-01-29T14:15:31.575Z,70.09
2023-01-29T14:18:06.476Z,69.92
2023-01-29T14:20:48.800Z,70.27
2023-01-29T14:23:31.570Z,70.19
2023-01-29T14:26:03.383Z,70.23
2023-01-29T14:28:53.082Z,70.37
2023-01-29T14:31:29.616Z,70.12
2023-01-29T14:34:01.671Z,70.16
2023-01-29T14:37:00.588Z,69.96
2023-01-29T14:39:39.359Z,70.23
2023-01-29T14:42:19.975Z,70.03
2023-01-29T14:44:57.461Z,70.34
2023-01-29T14:47:37.409Z,70.30
2023-01-29T14:50:22.904Z,69.92
2023-01-29T14:53:23.265Z,70.32
2023-01-29T14:56:02.054Z,70.30
2023-01-29T14:58:31.148Z,70.18
2023-01-29T15:01:01.057Z,70.12
2023-01-29T15:03:36.961Z,70.26
2023-01-29T15:06:05.338Z,70.16
2023-01-29T15:08:39.344Z,70.19
2023-01-29T15:11:33.641Z,70.17
2023-01-29T15:14:16.938Z,70.04
2023-01-29T15:16:46.403Z,70.36
2023-01-29T15:19:28.909Z,70.04
2023-01-29T15:22:12.586Z,70.24
2023-01-29T15:24:41.702Z,70.27
2023-01-29T15:27:20.356Z,70.29
2023-01-29T15:29:58.151Z,70.33
2023-01-29T15:39:43.996Z,70.41
2023-01-29T15:42:16.038Z,70.26
2023-01-29T15:44:50.321Z,70.33
2023-01-29T15:47:31.701Z,70.26
2023-01-29T15:50:24.935Z,70.22
2023-01-29T15:53:00.700Z,70.23
2023-01-29T15:59:09.695Z,70.46
2023-01-29T16:01:55.597Z,70.54
2023-01-29T16:05:02.328Z,70.40
2023-01-29T16:08:27.890Z,70.45
2023-01-29T16:11:07.630Z,70.50
2023-01-29T16:13:46.450Z,70.59
2023-01-29T16:16:46.396Z,70.35
2023-01-29T16:19:53.002Z,70.36
2023-01-29T16:23:26.461Z,70.29
2023-01-29T16:26:18.655Z,70.30
2023-01-29T16:28:55.612Z,70.46
2023-01-29T16:31:26.269Z,70.39
2023-01-29T16:33:56.147Z,70.33
2023-01-29T16:36:24.984Z,70.54
2023-01-29T16:38:58.089Z,70.50
2023-01-29T16:41:27.457Z,70.56
2023-01-29T16:43:58.735Z,70.46
2023-01-29T16:46:46.093Z,70.29
2023-01-29T16:49:26.233Z,70.55
2023-01-29T16:51:58.062Z,70.36
2023-01-29T16:54:27.132Z,70.60
2023-01-29T16:57:00.099Z,70.61
2023-01-29T16:59:38.158Z,70.59
2023-01-29T17:02:25.822Z,70.48
2023-01-29T17:04:59.047Z,70.75
2023-01-29T17:07:26.596Z,70.58
2023-01-29T17:09:55.812Z,70.41
2023-01-29T17:12:26.714Z,70.63
2023-01-29T17:14:58.819Z,70.62
2023-01-29T17:17:30.813Z,70.66
2023-01-29T17:19:59.671Z,70.84
2023-01-29T17:22:27.029Z,70.78
2023-01-29T17:24:58.241Z,70.63
2023-01-29T17:27:34.561Z,70.83
2023-01-29T17:30:02.445Z,70.69
2023-01-29T17:32:44.725Z,70.56
2023-01-29T17:35:15.196Z,70.75
2023-01-29T17:37:42.902Z,70.44
2023-01-29T17:40:24.161Z,70.77
2023-01-29T17:42:51.383Z,70.81
2023-01-29T17:45:19.170Z,70.75
2023-01-29T17:47:49.608Z,70.84
2023-01-29T17:50:25.741Z,70.86
2023-01-29T17:52:54.180Z,70.63
2023-01-29T17:55:22.130Z,70.67
2023-01-29T17:57:49.347Z,70.68
2023-01-29T18:00:19.598Z,70.58
2023-01-29T18:02:46.743Z,70.86
2023-01-29T18:05:14.846Z,70.82
2023-01-29T18:07:44.683Z,70.65
2023-01-29T18:10:21.671Z,70.86
2023-01-29T18:12:52.494Z,70.83
2023-01-29T18:18:56.002Z,70.89
2023-01-29T18:21:26.128Z,70.73
2023-01-29T18:23:53.622Z,70.72
2023-01-29T18:27:00.573Z,70.78
2023-01-29T18:30:17.070Z,70.68
2023-01-29T18:32:49.398Z,70.79
2023-01-29T18:35:22.578Z,70.91
2023-01-29T18:38:17.440Z,70.89
2023-01-29T18:40:45.696Z,70.81
2023-01-29T18:43:13.806Z,70.94
2023-01-29T18:45:44.604Z,70.74
2023-01-29T18:48:20.198Z,70.83
2023-01-29T18:55:14.441Z,70.91
2023-01-29T19:01:49.820Z,70.86
2023-01-29T19:25:22.552Z,70.92
2023-01-29T19:28:04.815Z,70.86
2023-01-29T19:30:39.551Z,70.69
2023-01-29T20:24:20.375Z,70.99
2023-01-29T20:32:04.465Z,71.04
2023-01-29T20:44:57.157Z,70.96
2023-01-29T20:47:24.436Z,71.01
2023-01-29T20:49:51.446Z,70.80
2023-01-29T20:52:30.559Z,71.16
2023-01-29T20:54:58.704Z,70.97
2023-01-29T20:57:28.364Z,70.99
2023-01-29T20:59:55.459Z,70.94
2023-01-29T21:02:24.982Z,70.97
2023-01-29T21:04:52.049Z,71.04
2023-01-29T21:07:20.821Z,70.92
2023-01-29T21:09:48.195Z,71.21
2023-01-29T21:12:19.991Z,70.95
2023-01-29T21:14:47.280Z,71.15
2023-01-29T21:17:26.685Z,71.27
2023-01-29T21:19:57.348Z,71.04
2023-01-29T21:22:24.493Z,71.04
2023-01-29T21:24:59.565Z,70.98
2023-01-29T21:27:37.764Z,71.15
2023-01-29T21:30:05.118Z,71.25
2023-01-29T21:32:32.828Z,71.02
2023-01-29T21:35:00.281Z,71.01
2023-01-29T21:37:37.660Z,70.90
2023-01-29T21:40:05.668Z,71.12
2023-01-29T21:46:41.258Z,71.21
2023-01-29T21:49:19.502Z,70.95
2023-01-29T21:52:17.944Z,70.99
2023-01-29T21:55:37.047Z,70.94
2023-01-29T21:58:31.177Z,70.85
2023-01-29T22:01:18.222Z,70.94
2023-01-29T22:04:58.268Z,71.11
